createdAt,value
2019-03-17T00:00:44.310Z,3.20
2019-03-17T00:03:13.392Z,2.17
2019-03-17T00:05:42.431Z,2.30
2019-03-17T00:08:11.436Z,3.07
2019-03-17T00:10:40.445Z,1.77
2019-03-17T00:13:09.517Z,2.27
2019-03-17T00:15:38.551Z,1.63
2019-03-17T00:18:08.459Z,3.73
2019-03-17T00:20:37.487Z,1.73
2019-03-17T00:23:06.546Z,2.27
2019-03-17T00:25:35.541Z,1.80
2019-03-17T00:28:04.600Z,3.20
2019-03-17T00:30:33.624Z,2.17
2019-03-17T00:33:02.701Z,4.10
2019-03-17T00:35:31.894Z,2.60
2019-03-17T00:38:00.927Z,1.97
2019-03-17T00:40:29.982Z,2.03
2019-03-17T00:42:59.083Z,2.57
2019-03-17T00:45:28.130Z,3.17
2019-03-17T00:47:57.175Z,1.70
2019-03-17T00:50:26.196Z,1.73
2019-03-17T00:52:55.474Z,2.47
2019-03-17T00:55:24.567Z,2.10
2019-03-17T00:57:53.583Z,1.90
2019-03-17T01:00:22.667Z,2.50
2019-03-17T01:02:51.724Z,2.50
2019-03-17T01:05:20.721Z,1.67
2019-03-17T01:07:49.793Z,3.23
2019-03-17T01:10:18.791Z,2.07
2019-03-17T01:12:47.814Z,3.30
2019-03-17T01:15:16.877Z,2.20
2019-03-17T01:17:45.998Z,2.87
2019-03-17T01:20:15.030Z,2.77
2019-03-17T01:22:44.080Z,2.10
2019-03-17T01:25:13.112Z,1.50
2019-03-17T01:27:42.108Z,2.20
2019-03-17T01:30:11.156Z,1.90
2019-03-17T01:32:40.197Z,2.73
2019-03-17T01:35:10.248Z,3.10
2019-03-17T01:37:39.359Z,2.13
2019-03-17T01:40:08.520Z,2.23
2019-03-17T01:42:37.558Z,2.60
2019-03-17T01:45:06.649Z,1.97
2019-03-17T01:47:35.683Z,1.97
2019-03-17T01:50:04.656Z,1.97
2019-03-17T01:52:33.691Z,2.70
2019-03-17T01:55:02.804Z,2.73
2019-03-17T01:57:31.857Z,4.33
2019-03-17T02:00:00.900Z,3.20
2019-03-17T02:02:29.930Z,2.47
2019-03-17T02:04:58.939Z,2.17
2019-03-17T02:07:27.977Z,1.80
2019-03-17T02:09:57.100Z,2.83
2019-03-17T02:12:26.093Z,1.90
2019-03-17T02:14:55.135Z,1.80
2019-03-17T02:17:24.133Z,3.10
2019-03-17T02:19:53.184Z,1.87
2019-03-17T02:22:22.393Z,2.43
2019-03-17T02:24:51.455Z,2.03
2019-03-17T02:27:20.526Z,3.47
2019-03-17T02:29:49.534Z,2.47
2019-03-17T02:32:18.541Z,2.73
2019-03-17T02:34:47.580Z,2.33
2019-03-17T02:37:16.575Z,3.03
2019-03-17T02:39:45.590Z,2.40
2019-03-17T02:42:14.674Z,2.63
2019-03-17T02:44:43.659Z,3.90
2019-03-17T02:47:12.681Z,4.33
2019-03-17T02:49:41.750Z,2.30
2019-03-17T02:52:10.844Z,3.90
2019-03-17T02:54:39.895Z,5.37
2019-03-17T02:57:08.940Z,3.07
2019-03-17T02:59:37.961Z,3.00
2019-03-17T03:02:07.005Z,6.30
2019-03-17T03:04:36.029Z,4.63
2019-03-17T03:07:05.067Z,5.47
2019-03-17T03:09:34.121Z,3.53
2019-03-17T03:12:03.222Z,3.17
2019-03-17T03:14:32.440Z,2.80
2019-03-17T03:17:01.459Z,4.63
2019-03-17T03:19:30.471Z,4.83
2019-03-17T03:21:59.637Z,2.30
2019-03-17T03:24:29.016Z,3.13
2019-03-17T03:26:58.104Z,2.90
2019-03-17T03:29:27.551Z,3.63
2019-03-17T03:31:56.605Z,1.90
2019-03-17T03:34:25.844Z,2.50
2019-03-17T03:36:54.954Z,5.47
2019-03-17T03:39:23.955Z,4.40
2019-03-17T03:41:52.990Z,4.67
2019-03-17T03:44:21.995Z,2.93
2019-03-17T03:46:51.077Z,5.43
2019-03-17T03:49:20.190Z,2.90
2019-03-17T03:51:49.210Z,4.27
2019-03-17T03:54:18.205Z,3.50
2019-03-17T03:56:47.245Z,4.47
2019-03-17T03:59:16.223Z,5.80
2019-03-17T04:01:45.295Z,2.20
2019-03-17T04:04:14.266Z,3.53
2019-03-17T04:06:43.314Z,2.40
2019-03-17T04:09:12.295Z,3.63
2019-03-17T04:11:41.311Z,9.47
2019-03-17T04:14:10.335Z,6.83
2019-03-17T04:16:39.422Z,4.33
2019-03-17T04:19:08.575Z,4.90
2019-03-17T04:21:37.617Z,4.27
2019-03-17T04:24:06.655Z,3.67
2019-03-17T04:26:35.683Z,4.33
2019-03-17T04:29:04.686Z,6.00
2019-03-17T04:31:33.696Z,10.37
2019-03-17T04:34:02.717Z,8.63
2019-03-17T04:36:39.984Z,6.00
2019-03-17T04:39:02.635Z,4.60
2019-03-17T04:41:31.721Z,8.00
2019-03-17T04:44:00.840Z,5.73
2019-03-17T04:46:29.912Z,7.13
2019-03-17T04:48:59.114Z,8.53
2019-03-17T04:51:28.131Z,6.43
2019-03-17T04:53:57.246Z,8.80
2019-03-17T04:56:26.268Z,5.40
2019-03-17T04:58:55.294Z,7.60
2019-03-17T05:01:24.329Z,19.33
2019-03-17T05:03:53.406Z,12.47
2019-03-17T05:06:24.789Z,6.07
2019-03-17T05:08:53.805Z,9.17
2019-03-17T05:11:22.853Z,8.10
2019-03-17T05:13:51.875Z,4.23
2019-03-17T05:16:20.876Z,5.57
2019-03-17T05:18:49.992Z,4.53
2019-03-17T05:21:19.057Z,7.03
2019-03-17T05:23:48.023Z,9.80
2019-03-17T05:26:17.031Z,5.40
2019-03-17T05:28:46.097Z,9.27
2019-03-17T05:31:15.099Z,7.10
2019-03-17T05:33:44.107Z,6.37
2019-03-17T05:36:13.130Z,7.80
2019-03-17T05:38:42.189Z,11.87
2019-03-17T05:41:11.260Z,7.87
2019-03-17T05:43:40.261Z,7.87
2019-03-17T05:46:09.284Z,4.83
2019-03-17T05:48:38.364Z,7.57
2019-03-17T05:51:07.395Z,9.67
2019-03-17T05:53:36.582Z,5.40
2019-03-17T05:56:05.664Z,6.37
2019-03-17T05:58:34.845Z,6.93
2019-03-17T06:01:03.895Z,8.17
2019-03-17T06:03:32.962Z,3.67
2019-03-17T06:06:02.030Z,7.23
2019-03-17T06:08:33.590Z,2.63
2019-03-17T06:11:01.856Z,6.17
2019-03-17T06:13:31.152Z,4.70
2019-03-17T06:16:00.184Z,3.77
2019-03-17T06:18:29.275Z,4.53
2019-03-17T06:20:58.313Z,6.70
2019-03-17T06:23:27.352Z,5.73
2019-03-17T06:25:58.559Z,5.07
2019-03-17T06:28:27.586Z,5.37
2019-03-17T06:30:56.656Z,2.47
2019-03-17T06:33:25.659Z,5.60
2019-03-17T06:35:54.767Z,5.20
2019-03-17T06:38:23.761Z,3.53
2019-03-17T06:40:52.885Z,2.90
2019-03-17T06:43:21.931Z,3.23
2019-03-17T06:45:50.971Z,2.57
2019-03-17T06:48:19.988Z,3.23
2019-03-17T06:50:49.128Z,4.23
2019-03-17T06:53:18.115Z,10.27
2019-03-17T06:55:47.147Z,3.50
2019-03-17T06:58:16.198Z,4.27
2019-03-17T07:00:45.211Z,5.27
2019-03-17T07:03:14.239Z,6.07
2019-03-17T07:05:44.456Z,4.40
2019-03-17T07:08:13.455Z,2.13
2019-03-17T07:10:42.553Z,5.03
2019-03-17T07:13:13.913Z,3.77
2019-03-17T07:15:43.200Z,4.13
2019-03-17T07:18:12.246Z,1.93
2019-03-17T07:20:41.417Z,3.87
2019-03-17T07:23:10.515Z,2.50
2019-03-17T07:25:39.627Z,3.67
2019-03-17T07:28:08.706Z,3.47
2019-03-17T07:30:37.792Z,2.63
2019-03-17T07:33:06.823Z,2.73
2019-03-17T07:35:35.896Z,3.27
2019-03-17T07:38:05.016Z,4.03
2019-03-17T07:40:34.109Z,4.23
2019-03-17T07:43:03.310Z,3.17
2019-03-17T07:45:32.385Z,2.77
2019-03-17T07:48:07.384Z,2.90
2019-03-17T07:50:36.521Z,2.03
2019-03-17T07:53:05.652Z,2.17
2019-03-17T07:55:34.869Z,1.83
2019-03-17T07:58:03.939Z,1.50
2019-03-17T08:00:32.966Z,1.97
2019-03-17T08:03:05.234Z,1.70
2019-03-17T08:05:34.506Z,4.43
2019-03-17T08:08:09.184Z,2.27
2019-03-17T08:10:34.386Z,3.03
2019-03-17T08:13:03.440Z,2.07
2019-03-17T08:15:32.512Z,2.70
2019-03-17T08:18:01.756Z,3.33
2019-03-17T08:20:30.823Z,2.73
2019-03-17T08:22:59.918Z,2.00
2019-03-17T08:25:29.057Z,2.47
2019-03-17T08:27:58.180Z,1.83
2019-03-17T08:30:27.298Z,1.60
2019-03-17T08:32:56.391Z,2.70
2019-03-17T08:35:25.495Z,0.97
2019-03-17T08:37:54.573Z,2.53
2019-03-17T08:40:23.714Z,1.13
2019-03-17T08:42:52.851Z,1.17
2019-03-17T08:45:21.948Z,4.57
2019-03-17T08:47:57.992Z,1.93
2019-03-17T08:50:22.483Z,1.83
2019-03-17T08:52:51.601Z,3.13
2019-03-17T08:55:20.709Z,1.50
2019-03-17T08:57:49.855Z,1.20
2019-03-17T09:00:18.914Z,1.67
2019-03-17T09:02:48.055Z,4.03
2019-03-17T09:05:17.167Z,1.93
2019-03-17T09:07:46.313Z,3.77
2019-03-17T09:10:15.380Z,1.50
2019-03-17T09:12:44.586Z,0.90
2019-03-17T09:15:13.884Z,1.73
2019-03-17T09:17:43.125Z,1.80
2019-03-17T09:20:12.191Z,1.77
2019-03-17T09:22:41.342Z,2.40
2019-03-17T09:25:10.522Z,1.67
2019-03-17T09:27:39.756Z,3.50
2019-03-17T09:30:10.614Z,1.53
2019-03-17T09:32:39.756Z,1.80
2019-03-17T09:35:09.193Z,2.77
2019-03-17T09:37:38.274Z,2.13
2019-03-17T09:40:07.716Z,3.40
2019-03-17T09:42:36.751Z,2.20
2019-03-17T09:45:06.844Z,2.00
2019-03-17T09:47:36.393Z,4.80
2019-03-17T09:50:06.522Z,1.97
2019-03-17T09:52:36.149Z,2.03
2019-03-17T09:55:05.454Z,3.70
2019-03-17T09:57:34.650Z,2.67
2019-03-17T10:00:03.892Z,2.03
2019-03-17T10:02:33.083Z,1.90
2019-03-17T10:05:02.162Z,1.77
2019-03-17T10:07:31.541Z,3.83
2019-03-17T10:10:00.711Z,1.83
2019-03-17T10:12:30.525Z,1.80
2019-03-17T10:14:59.950Z,1.90
2019-03-17T10:17:29.311Z,2.30
2019-03-17T10:19:58.449Z,2.77
2019-03-17T10:22:27.640Z,1.90
2019-03-17T10:24:56.852Z,3.00
2019-03-17T10:27:25.962Z,1.83
2019-03-17T10:29:55.152Z,4.93
2019-03-17T10:32:24.215Z,3.20
2019-03-17T10:34:53.351Z,2.37
2019-03-17T10:37:23.615Z,3.97
2019-03-17T10:39:54.966Z,1.30
2019-03-17T10:42:24.111Z,1.50
2019-03-17T10:44:53.405Z,2.00
2019-03-17T10:47:22.634Z,1.40
2019-03-17T10:49:51.867Z,2.73
2019-03-17T10:52:20.917Z,2.03
2019-03-17T10:54:49.950Z,2.00
2019-03-17T10:57:19.269Z,3.03
2019-03-17T10:59:48.631Z,2.33
2019-03-17T11:02:17.810Z,2.27
2019-03-17T11:04:46.948Z,1.53
2019-03-17T11:07:16.050Z,0.80
2019-03-17T11:09:45.647Z,2.40
2019-03-17T11:12:14.819Z,4.33
2019-03-17T11:14:44.015Z,1.50
2019-03-17T11:17:13.079Z,1.90
2019-03-17T11:19:42.180Z,2.00
2019-03-17T11:22:11.199Z,3.53
2019-03-17T11:24:40.347Z,1.50
2019-03-17T11:27:09.447Z,2.97
2019-03-17T11:29:38.932Z,1.20
2019-03-17T11:32:08.264Z,1.73
2019-03-17T11:34:37.900Z,2.00
2019-03-17T11:37:07.028Z,2.10
2019-03-17T11:39:38.009Z,1.53
2019-03-17T11:42:07.125Z,2.23
2019-03-17T11:44:36.204Z,2.00
2019-03-17T11:47:05.290Z,1.70
2019-03-17T11:49:34.411Z,2.07
2019-03-17T11:52:03.547Z,3.87
2019-03-17T11:54:32.633Z,2.40
2019-03-17T11:57:01.713Z,2.00
2019-03-17T11:59:30.824Z,2.97
2019-03-17T12:01:59.825Z,3.27
2019-03-17T12:04:28.860Z,4.43
2019-03-17T12:07:01.028Z,2.70
2019-03-17T12:09:30.256Z,3.37
2019-03-17T12:11:59.295Z,3.03
2019-03-17T12:14:28.453Z,3.37
2019-03-17T12:16:57.487Z,3.10
2019-03-17T12:19:26.786Z,3.07
2019-03-17T12:22:08.134Z,2.50
2019-03-17T12:24:26.679Z,3.20
2019-03-17T12:26:55.811Z,2.63
2019-03-17T12:29:24.996Z,2.87
2019-03-17T12:31:54.159Z,3.20
2019-03-17T12:34:28.259Z,5.07
2019-03-17T12:36:54.136Z,2.90
2019-03-17T12:39:23.355Z,3.80
2019-03-17T12:41:52.372Z,2.47
2019-03-17T12:44:21.379Z,2.27
2019-03-17T12:46:50.453Z,3.20
2019-03-17T12:49:19.626Z,2.37
2019-03-17T12:51:48.643Z,2.43
2019-03-17T12:54:17.736Z,3.17
2019-03-17T12:56:46.758Z,3.50
2019-03-17T12:59:15.910Z,3.00
2019-03-17T13:01:44.947Z,2.70
2019-03-17T13:04:14.024Z,0.97
2019-03-17T13:06:43.052Z,0.77
2019-03-17T13:09:12.277Z,1.73
2019-03-17T13:11:41.366Z,1.83
2019-03-17T13:14:13.514Z,1.70
2019-03-17T13:16:42.516Z,1.50
2019-03-17T13:19:11.561Z,0.73
2019-03-17T13:21:40.599Z,0.73
2019-03-17T13:24:09.620Z,0.70
2019-03-17T13:26:38.656Z,1.67
2019-03-17T13:29:07.682Z,1.10
2019-03-17T13:31:36.889Z,1.73
2019-03-17T13:34:06.032Z,2.10
2019-03-17T13:36:35.024Z,0.97
2019-03-17T13:39:05.374Z,0.80
2019-03-17T13:41:34.579Z,0.83
2019-03-17T13:44:03.639Z,0.97
2019-03-17T13:46:32.692Z,1.00
2019-03-17T13:49:01.691Z,1.17
2019-03-17T13:51:30.709Z,1.43
2019-03-17T13:53:59.779Z,1.20
2019-03-17T13:56:28.807Z,2.03
2019-03-17T13:58:57.872Z,3.20
2019-03-17T14:01:26.867Z,1.37
2019-03-17T14:03:55.950Z,1.27
2019-03-17T14:06:24.991Z,1.87
2019-03-17T14:08:54.041Z,0.93
2019-03-17T14:11:23.073Z,1.00
2019-03-17T14:13:52.141Z,2.40
2019-03-17T14:16:21.217Z,1.03
2019-03-17T14:18:50.238Z,0.60
2019-03-17T14:21:19.303Z,0.60
2019-03-17T14:23:48.416Z,0.93
2019-03-17T14:26:17.441Z,2.00
2019-03-17T14:28:46.463Z,0.60
2019-03-17T14:31:15.534Z,2.00
2019-03-17T14:55:16.466Z,0.37
2019-03-17T14:58:08.168Z,0.63
2019-03-17T15:00:40.356Z,0.80
2019-03-17T15:03:58.537Z,0.80
2019-03-17T15:06:28.108Z,0.60
2019-03-17T15:08:58.928Z,0.70
2019-03-17T15:11:28.977Z,1.03
2019-03-17T15:13:58.724Z,1.93
2019-03-17T15:16:28.076Z,0.90
2019-03-17T15:18:57.723Z,2.03
2019-03-17T15:21:28.445Z,1.83
2019-03-17T15:40:03.904Z,2.00
2019-03-17T15:42:36.278Z,0.80
2019-03-17T15:45:06.300Z,1.10
2019-03-17T15:47:35.869Z,1.57
2019-03-17T15:50:06.196Z,1.40
2019-03-17T15:52:35.733Z,3.00
2019-03-17T15:55:06.011Z,1.07
2019-03-17T15:57:37.086Z,2.03
2019-03-17T16:00:08.037Z,0.80
2019-03-17T16:02:37.402Z,1.00
2019-03-17T16:05:07.584Z,1.00
2019-03-17T16:07:42.209Z,1.33
2019-03-17T16:10:08.654Z,0.97
2019-03-17T16:12:39.728Z,1.70
2019-03-17T16:15:10.800Z,1.07
2019-03-17T16:17:40.466Z,2.13
2019-03-17T16:20:11.751Z,2.43
2019-03-17T16:22:40.823Z,2.73
2019-03-17T16:25:10.262Z,1.03
2019-03-17T16:27:39.317Z,0.80
2019-03-17T16:30:11.750Z,1.40
2019-03-17T16:32:40.895Z,2.33
2019-03-17T16:35:10.106Z,1.00
2019-03-17T16:37:41.291Z,1.20
2019-03-17T16:40:11.772Z,1.17
2019-03-17T16:42:40.961Z,3.03
2019-03-17T16:45:10.786Z,1.23
2019-03-17T16:47:39.924Z,2.63
2019-03-17T16:50:10.762Z,2.03
2019-03-17T16:52:39.962Z,3.43
2019-03-17T16:55:11.340Z,1.90
2019-03-17T16:57:40.840Z,1.47
2019-03-17T17:00:13.117Z,2.50
2019-03-17T17:02:42.678Z,2.10
2019-03-17T17:05:12.202Z,2.63
2019-03-17T17:07:41.649Z,3.33
2019-03-17T17:10:13.077Z,2.40
2019-03-17T17:12:43.497Z,2.57
2019-03-17T17:15:17.676Z,2.80
2019-03-17T17:17:49.101Z,2.40
2019-03-17T17:20:28.349Z,3.23
2019-03-17T17:22:58.751Z,3.53
2019-03-17T17:25:28.630Z,2.70
2019-03-17T17:27:58.569Z,1.80
2019-03-17T17:30:35.223Z,2.13
2019-03-17T17:33:50.009Z,1.47
2019-03-17T17:36:19.665Z,2.33
2019-03-17T17:38:50.224Z,2.10
2019-03-17T17:41:19.627Z,1.87
2019-03-17T17:43:49.971Z,2.53
2019-03-17T17:46:22.390Z,2.40
2019-03-17T17:48:55.685Z,2.93
2019-03-17T17:51:25.645Z,1.70
2019-03-17T17:53:55.619Z,1.87
2019-03-17T17:56:25.785Z,3.67
2019-03-17T17:58:58.048Z,2.33
2019-03-17T18:26:36.815Z,2.00
2019-03-17T18:29:06.016Z,2.80
2019-03-17T18:31:45.540Z,2.00
2019-03-17T18:34:18.489Z,1.30
2019-03-17T18:37:13.465Z,1.13
2019-03-17T18:39:47.839Z,3.17
2019-03-17T18:42:17.060Z,4.37
2019-03-17T18:44:46.673Z,1.37
2019-03-17T18:47:19.645Z,1.53
2019-03-17T18:49:52.210Z,1.73
2019-03-17T18:52:23.365Z,1.17
2019-03-17T18:58:57.550Z,2.27
2019-03-17T19:01:32.000Z,1.67
2019-03-17T19:04:01.658Z,1.87
2019-03-17T19:06:31.180Z,2.13
2019-03-17T19:09:00.312Z,2.57
2019-03-17T19:11:29.380Z,1.67
2019-03-17T19:13:58.479Z,2.40
2019-03-17T19:16:27.644Z,3.00
2019-03-17T19:18:59.596Z,5.33
2019-03-17T19:21:27.778Z,2.87
2019-03-17T19:23:56.952Z,1.80
2019-03-17T19:26:27.044Z,1.53
2019-03-17T19:28:56.295Z,2.27
2019-03-17T19:31:25.555Z,4.93
2019-03-17T19:33:54.668Z,1.90
2019-03-17T19:36:23.866Z,2.50
2019-03-17T19:38:53.146Z,2.20
2019-03-17T19:41:22.982Z,2.53
2019-03-17T19:43:52.644Z,1.73
2019-03-17T19:46:22.455Z,1.60
2019-03-17T19:48:52.322Z,1.80
2019-03-17T19:51:24.863Z,1.60
2019-03-17T19:53:54.969Z,1.00
2019-03-17T19:56:25.453Z,2.40
2019-03-17T19:58:55.869Z,1.50
2019-03-17T20:01:27.329Z,1.60
2019-03-17T20:04:47.526Z,1.77
2019-03-17T20:07:18.670Z,1.53
2019-03-17T20:09:50.615Z,1.37
2019-03-17T20:12:20.264Z,1.43
2019-03-17T20:14:49.884Z,1.43
2019-03-17T20:17:19.098Z,2.47
2019-03-17T20:19:48.213Z,1.30
2019-03-17T20:22:17.592Z,1.37
2019-03-17T20:24:46.757Z,1.20
2019-03-17T20:27:15.921Z,1.87
2019-03-17T20:29:44.989Z,3.67
2019-03-17T20:32:14.135Z,1.67
2019-03-17T20:34:43.287Z,2.37
2019-03-17T20:37:31.482Z,3.33
2019-03-17T20:40:00.450Z,2.67
2019-03-17T20:42:29.539Z,4.57
2019-03-17T20:44:58.589Z,2.07
2019-03-17T20:47:27.607Z,2.57
2019-03-17T20:49:56.603Z,2.67
2019-03-17T20:52:25.670Z,1.70
2019-03-17T20:54:54.713Z,1.87
2019-03-17T20:57:23.772Z,2.20
2019-03-17T20:59:52.813Z,2.30
2019-03-17T21:02:21.877Z,1.80
2019-03-17T21:04:50.874Z,3.20
2019-03-17T21:07:22.526Z,2.30
2019-03-17T21:09:51.611Z,2.00
2019-03-17T21:12:20.669Z,2.40
2019-03-17T21:14:49.854Z,2.03
2019-03-17T21:17:18.862Z,1.83
2019-03-17T21:19:47.912Z,2.43
2019-03-17T21:22:16.941Z,1.80
2019-03-17T21:24:45.972Z,2.13
2019-03-17T21:27:14.953Z,2.13
2019-03-17T21:29:44.050Z,3.33
2019-03-17T21:32:13.114Z,2.90
2019-03-17T21:34:42.113Z,2.50
2019-03-17T21:37:11.139Z,2.80
2019-03-17T21:39:40.178Z,2.50
2019-03-17T21:42:09.191Z,4.57
2019-03-17T21:44:38.274Z,2.50
2019-03-17T21:47:08.641Z,4.47
2019-03-17T21:49:37.679Z,2.80
2019-03-17T21:52:06.733Z,3.27
2019-03-17T21:54:35.873Z,2.13
2019-03-17T21:57:04.871Z,2.07
2019-03-17T21:59:33.953Z,2.60
2019-03-17T22:02:12.330Z,3.17
2019-03-17T22:04:33.836Z,1.90
2019-03-17T22:07:02.937Z,2.13
2019-03-17T22:09:32.062Z,2.80
2019-03-17T22:12:01.158Z,1.90
2019-03-17T22:14:30.224Z,1.63
2019-03-17T22:16:59.235Z,2.40
2019-03-17T22:19:28.266Z,2.30
2019-03-17T22:21:57.422Z,1.93
2019-03-17T22:24:26.453Z,2.20
2019-03-17T22:26:55.502Z,1.87
2019-03-17T22:29:24.541Z,2.40
2019-03-17T22:31:53.599Z,3.60
2019-03-17T22:34:22.670Z,1.90
2019-03-17T22:36:51.660Z,1.80
2019-03-17T22:39:20.697Z,1.77
2019-03-17T22:41:49.739Z,2.80
2019-03-17T22:44:28.279Z,1.90
2019-03-17T22:46:57.304Z,2.10
2019-03-17T22:49:26.311Z,4.47
2019-03-17T22:51:55.336Z,2.20
2019-03-17T22:54:24.408Z,2.90
2019-03-17T22:56:53.632Z,1.80
2019-03-17T22:59:22.671Z,5.83
2019-03-17T23:01:51.781Z,1.73
2019-03-17T23:04:22.151Z,2.30
2019-03-17T23:06:51.217Z,3.47
2019-03-17T23:09:20.442Z,3.90
2019-03-17T23:11:49.440Z,2.67
2019-03-17T23:14:18.648Z,1.80
2019-03-17T23:16:47.834Z,2.33
2019-03-17T23:19:16.880Z,2.30
2019-03-17T23:21:45.972Z,2.43
2019-03-17T23:24:14.983Z,2.23
2019-03-17T23:26:44.045Z,2.60
2019-03-17T23:29:13.086Z,3.43
2019-03-17T23:31:42.121Z,2.70
2019-03-17T23:34:11.302Z,2.73
2019-03-17T23:36:40.423Z,2.43
2019-03-17T23:39:09.597Z,4.13
2019-03-17T23:41:38.614Z,2.10
2019-03-17T23:44:07.763Z,2.30
2019-03-17T23:46:36.809Z,2.40
2019-03-17T23:49:05.830Z,2.40
2019-03-17T23:51:34.832Z,2.93
2019-03-17T23:54:03.856Z,3.50
2019-03-17T23:56:32.894Z,2.70
2019-03-17T23:59:01.916Z,4.40
